Time;durP1;ratioP1;P1;durP2;ratioP2;P2;SDS_P1;SDS_P2;PMS_P1;PMS_P2;Temp;Humidity;BMP_temperature;BMP_pressure;BME280_temperature;BME280_humidity;BME280_pressure;Samples;Min_cycle;Max_cycle;Signal;HPM_P1;HPM_P2
2022/05/08 00:02:18;;;;;;;10.50;7.10;;;14.40;99.90;;;;;;12791813;23;20191;-79
2022/05/08 00:07:22;;;;;;;7.57;6.63;;;14.20;99.90;;;;;;12765824;23;20172;-79
2022/05/08 00:12:24;;;;;;;10.60;7.13;;;14.30;99.90;;;;;;12764941;23;20179;-79
2022/05/08 00:17:29;;;;;;;10.23;6.90;;;14.40;99.90;;;;;;12789890;23;20175;-79
2022/05/08 00:22:45;;;;;;;7.67;6.57;;;14.50;99.90;;;;;;12764249;23;20594;-79
2022/05/08 00:27:48;;;;;;;11.63;7.30;;;14.50;99.90;;;;;;12809085;23;20167;-79
2022/05/08 00:32:50;;;;;;;9.97;7.67;;;14.30;99.90;;;;;;12765086;23;20205;-79
2022/05/08 00:37:52;;;;;;;8.73;7.40;;;14.00;99.90;;;;;;12764664;23;20226;-79
2022/05/08 00:42:55;;;;;;;7.87;6.27;;;13.90;99.90;;;;;;12774158;23;20194;-79
2022/05/08 00:47:58;;;;;;;11.53;7.93;;;13.80;99.90;;;;;;12740254;23;20203;-79
2022/05/08 00:53:00;;;;;;;8.40;7.27;;;13.80;99.90;;;;;;12808296;23;20164;-79
2022/05/08 00:58:03;;;;;;;9.80;7.03;;;13.80;99.90;;;;;;12808452;23;20199;-79
2022/05/08 01:03:06;;;;;;;8.50;7.47;;;14.20;99.90;;;;;;12791021;23;20191;-79
2022/05/08 01:08:10;;;;;;;5.67;5.17;;;14.20;99.90;;;;;;12782927;23;20225;-79
2022/05/08 01:13:12;;;;;;;9.33;7.60;;;14.70;99.90;;;;;;12782448;23;20175;-79
2022/05/08 01:18:16;;;;;;;11.20;6.60;;;14.60;99.90;;;;;;12790887;23;20230;-79
2022/05/08 01:23:21;;;;;;;10.43;7.67;;;14.60;99.90;;;;;;12739549;23;20228;-79
2022/05/08 01:28:25;;;;;;;9.23;6.97;;;14.10;99.90;;;;;;12790632;23;20195;-79
2022/05/08 01:33:28;;;;;;;10.93;7.90;;;13.90;99.90;;;;;;12765047;23;20172;-79
2022/05/08 01:38:30;;;;;;;10.67;7.93;;;13.60;99.90;;;;;;12784746;23;20174;-79
2022/05/08 01:43:36;;;;;;;8.23;7.40;;;13.50;99.90;;;;;;12800391;23;20195;-79
2022/05/08 01:48:39;;;;;;;8.30;6.63;;;13.60;99.90;;;;;;12811248;23;20179;-79
2022/05/08 01:53:42;;;;;;;9.40;8.37;;;13.90;99.90;;;;;;12793576;23;20178;-79
2022/05/08 01:58:47;;;;;;;6.13;4.80;;;14.10;99.90;;;;;;12812408;23;20238;-79
2022/05/08 02:03:50;;;;;;;7.57;6.43;;;14.60;99.90;;;;;;12810196;23;20245;-79
2022/05/08 02:08:52;;;;;;;10.93;8.23;;;14.90;99.90;;;;;;12742892;23;20701;-79
2022/05/08 02:13:55;;;;;;;11.50;8.80;;;14.60;99.90;;;;;;12809587;23;20222;-79
2022/05/08 02:18:57;;;;;;;11.33;9.20;;;14.00;99.90;;;;;;12767645;23;20229;-79
2022/05/08 02:24:00;;;;;;;11.30;9.40;;;13.50;99.90;;;;;;12768174;23;20231;-79
2022/05/08 02:29:02;;;;;;;10.80;7.67;;;13.30;99.90;;;;;;12810557;23;20597;-79
2022/05/08 02:34:05;;;;;;;8.60;7.73;;;13.50;99.90;;;;;;12793557;23;20176;-79
2022/05/08 02:39:07;;;;;;;12.60;8.67;;;13.80;99.90;;;;;;12785897;23;20198;-79
2022/05/08 02:44:10;;;;;;;13.43;10.23;;;13.80;99.90;;;;;;12767619;23;20229;-79
2022/05/08 02:49:12;;;;;;;13.60;8.40;;;13.70;99.90;;;;;;12765799;23;20171;-79
2022/05/08 02:54:15;;;;;;;12.27;9.50;;;13.60;99.90;;;;;;12766813;23;20503;-79
2022/05/08 02:59:17;;;;;;;8.73;7.83;;;13.90;99.90;;;;;;12785285;23;20226;-79
2022/05/08 03:04:20;;;;;;;11.80;8.50;;;14.00;99.90;;;;;;12780371;23;20194;-79
2022/05/08 03:09:22;;;;;;;11.07;9.83;;;13.70;99.90;;;;;;12792477;23;20168;-79
2022/05/08 03:14:24;;;;;;;13.63;10.00;;;13.60;99.90;;;;;;12810356;23;20167;-79
2022/05/08 03:19:29;;;;;;;12.33;10.87;;;13.40;99.90;;;;;;12764723;23;20186;-79
2022/05/08 03:24:31;;;;;;;10.80;9.70;;;13.00;99.90;;;;;;12766582;23;20198;-79
2022/05/08 03:29:34;;;;;;;11.47;10.03;;;12.90;99.90;;;;;;12741686;23;20174;-79
2022/05/08 03:34:37;;;;;;;13.57;9.83;;;12.80;99.90;;;;;;12791606;23;20179;-79
2022/05/08 03:39:40;;;;;;;11.03;9.83;;;13.00;99.90;;;;;;12792155;23;20172;-79
2022/05/08 03:44:42;;;;;;;10.47;8.70;;;13.30;99.90;;;;;;12740274;23;20203;-79
2022/05/08 03:49:45;;;;;;;10.53;9.00;;;13.00;99.90;;;;;;12805346;23;20700;-79
2022/05/08 03:54:49;;;;;;;10.67;8.80;;;12.80;99.90;;;;;;12792361;23;20230;-79
2022/05/08 03:59:52;;;;;;;12.17;8.90;;;13.20;99.90;;;;;;12765793;23;20216;-79
2022/05/08 04:04:54;;;;;;;14.13;9.93;;;13.10;99.90;;;;;;12791604;23;20222;-79
2022/05/08 04:09:58;;;;;;;13.47;9.90;;;12.90;99.90;;;;;;12791707;23;20194;-79
2022/05/08 04:15:01;;;;;;;12.93;9.50;;;13.40;99.90;;;;;;12791711;23;20212;-79
2022/05/08 04:20:07;;;;;;;11.83;9.70;;;13.30;99.90;;;;;;12765867;23;20172;-79
2022/05/08 04:25:10;;;;;;;10.97;9.67;;;13.20;99.90;;;;;;12791721;23;20189;-79
2022/05/08 04:30:13;;;;;;;11.93;8.10;;;13.60;99.90;;;;;;12791288;23;20168;-79
2022/05/08 04:35:15;;;;;;;10.83;8.30;;;13.90;99.90;;;;;;12790333;23;20189;-79
2022/05/08 04:40:19;;;;;;;10.77;8.43;;;14.10;99.90;;;;;;12764497;23;20186;-79
2022/05/08 04:45:21;;;;;;;8.07;6.07;;;14.40;99.90;;;;;;12808736;23;20339;-79
2022/05/08 04:50:30;;;;;;;12.33;9.30;;;14.50;99.90;;;;;;12764761;23;20250;-79
2022/05/08 04:55:32;;;;;;;14.53;9.43;;;14.40;99.90;;;;;;12765506;23;20697;-79
2022/05/08 05:00:35;;;;;;;11.70;8.53;;;14.20;99.90;;;;;;12740879;23;20183;-79
2022/05/08 05:05:37;;;;;;;8.23;6.73;;;14.50;99.90;;;;;;12792726;23;20187;-79
2022/05/08 05:10:40;;;;;;;9.67;8.07;;;14.40;99.90;;;;;;12784740;23;20191;-79
2022/05/08 05:15:43;;;;;;;8.57;7.63;;;14.90;99.90;;;;;;12770046;23;20643;-79
2022/05/08 05:20:45;;;;;;;9.73;7.23;;;14.60;99.90;;;;;;12768971;23;20212;-79
2022/05/08 05:25:51;;;;;;;5.43;4.67;;;14.70;99.90;;;;;;12813450;23;20191;-79
2022/05/08 05:30:53;;;;;;;6.07;5.47;;;14.90;99.90;;;;;;12794610;23;20169;-79
2022/05/08 05:35:56;;;;;;;6.47;5.77;;;15.00;99.90;;;;;;12795937;23;20226;-79
2022/05/08 05:40:58;;;;;;;10.13;7.10;;;15.20;99.90;;;;;;12812169;23;20198;-79
2022/05/08 05:51:22;;;;;;;9.50;5.73;;;15.10;99.90;;;;;;12802402;23;20513;-79
2022/05/08 05:56:24;;;;;;;4.40;3.77;;;16.10;99.90;;;;;;12795741;23;20172;-79
2022/05/08 06:01:27;;;;;;;7.23;4.43;;;15.90;99.90;;;;;;12794772;23;20172;-79
2022/05/08 06:06:29;;;;;;;5.43;4.93;;;16.10;99.90;;;;;;12768893;23;20559;-79
2022/05/08 06:11:32;;;;;;;4.20;3.77;;;16.30;99.90;;;;;;12768346;23;20233;-79
2022/05/08 06:16:35;;;;;;;4.57;3.20;;;15.60;99.90;;;;;;12793902;23;20175;-80
2022/05/08 06:21:38;;;;;;;6.10;3.87;;;15.90;99.90;;;;;;12793276;23;20176;-79
2022/05/08 06:26:40;;;;;;;4.07;3.50;;;15.80;99.90;;;;;;12794347;23;20521;-79
2022/05/08 06:31:46;;;;;;;4.17;3.77;;;16.00;99.90;;;;;;12766987;23;20175;-79
2022/05/08 06:36:52;;;;;;;5.07;3.87;;;15.50;99.90;;;;;;12771878;23;20560;-79
2022/05/08 06:41:54;;;;;;;7.00;4.00;;;15.30;99.90;;;;;;12766821;23;20534;-79
2022/05/08 06:47:07;;;;;;;5.10;3.10;;;15.60;99.90;;;;;;12810920;23;20172;-79
2022/05/08 06:52:12;;;;;;;4.13;2.73;;;15.90;99.90;;;;;;12766270;23;20639;-79
2022/05/08 06:57:14;;;;;;;3.20;2.73;;;15.40;99.90;;;;;;12792674;23;20250;-79
2022/05/08 07:02:17;;;;;;;4.83;3.37;;;15.20;99.90;;;;;;12792339;23;20190;-79
2022/05/08 07:07:20;;;;;;;3.70;3.40;;;15.00;99.90;;;;;;12792575;23;20510;-79
2022/05/08 07:12:25;;;;;;;5.50;3.43;;;15.40;99.90;;;;;;12764834;23;20807;-78
2022/05/08 07:17:28;;;;;;;3.87;3.30;;;15.90;99.90;;;;;;12791953;23;20202;-79
2022/05/08 07:22:33;;;;;;;7.87;3.83;;;15.70;99.90;;;;;;12792180;23;20191;-79
2022/05/08 07:27:36;;;;;;;3.53;3.03;;;15.80;99.90;;;;;;12764278;23;20172;-79
2022/05/08 07:32:40;;;;;;;3.10;2.77;;;15.70;99.90;;;;;;12762029;23;20210;-79
2022/05/08 07:37:43;;;;;;;3.60;2.33;;;15.10;99.90;;;;;;12762442;23;20182;-79
2022/05/08 07:42:46;;;;;;;2.37;2.17;;;14.80;99.90;;;;;;12773003;23;20646;-79
2022/05/08 07:47:49;;;;;;;2.70;2.30;;;14.80;99.90;;;;;;12789914;23;20168;-79
2022/05/08 07:52:52;;;;;;;3.27;2.90;;;14.90;99.90;;;;;;12789858;23;20179;-79
2022/05/08 07:57:54;;;;;;;2.40;2.10;;;15.20;99.90;;;;;;12805791;23;20171;-79
2022/05/08 08:02:57;;;;;;;4.57;2.33;;;15.00;99.90;;;;;;12738084;23;20316;-81
2022/05/08 08:08:01;;;;;;;3.13;2.60;;;14.90;99.90;;;;;;12764980;23;20171;-79
2022/05/08 08:13:04;;;;;;;3.93;2.60;;;14.60;99.90;;;;;;12763091;23;20576;-79
2022/05/08 08:18:06;;;;;;;2.80;2.60;;;15.10;99.90;;;;;;12791559;23;20501;-80
2022/05/08 08:23:10;;;;;;;4.43;2.67;;;15.50;99.90;;;;;;12761058;23;20242;-79
2022/05/08 08:28:13;;;;;;;5.57;4.00;;;14.70;99.90;;;;;;12806850;23;20168;-78
2022/05/08 08:33:16;;;;;;;5.70;4.00;;;14.20;99.90;;;;;;12807616;23;20222;-78
2022/05/08 08:38:19;;;;;;;5.37;3.43;;;14.10;99.90;;;;;;12787874;23;20171;-77
2022/05/08 08:43:21;;;;;;;4.20;3.47;;;15.20;99.90;;;;;;12762647;23;20236;-77
2022/05/08 08:48:32;;;;;;;3.57;3.20;;;16.00;99.90;;;;;;12765440;23;20176;-79
2022/05/08 08:53:35;;;;;;;4.53;3.00;;;16.20;99.90;;;;;;12785349;23;20170;-78
2022/05/08 08:58:37;;;;;;;2.80;2.60;;;16.20;99.90;;;;;;12795589;23;20629;-78
2022/05/08 09:03:40;;;;;;;3.63;2.77;;;16.50;99.90;;;;;;12795159;23;20531;-78
2022/05/08 09:08:42;;;;;;;2.50;2.27;;;16.70;99.90;;;;;;12795737;23;20172;-78
2022/05/08 09:13:51;;;;;;;5.07;1.90;;;17.20;99.90;;;;;;12794130;23;20515;-78
2022/05/08 09:18:53;;;;;;;4.23;2.10;;;16.70;99.90;;;;;;12794396;23;20206;-77
2022/05/08 09:24:10;;;;;;;2.70;2.50;;;17.30;99.90;;;;;;12794760;23;20218;-77
2022/05/08 09:29:21;;;;;;;4.13;3.03;;;17.70;99.90;;;;;;12812219;23;20198;-78
2022/05/08 09:34:24;;;;;;;3.10;2.83;;;17.90;99.90;;;;;;12810772;23;20574;-78
2022/05/08 09:39:27;;;;;;;2.07;1.90;;;18.40;99.90;;;;;;12768260;23;20218;-79
2022/05/08 09:44:29;;;;;;;2.60;1.70;;;18.40;99.90;;;;;;12767800;23;20195;-80
2022/05/08 09:49:33;;;;;;;4.10;3.27;;;17.50;99.90;;;;;;12807279;23;20533;-78
2022/05/08 09:54:35;;;;;;;2.80;2.50;;;18.30;99.90;;;;;;12790655;23;20204;-78
2022/05/08 09:59:38;;;;;;;3.00;2.67;;;18.70;99.90;;;;;;12791781;23;20654;-76
2022/05/08 10:04:40;;;;;;;3.47;2.97;;;18.40;99.90;;;;;;12789954;23;20594;-77
2022/05/08 10:15:20;;;;;;;2.83;1.57;;;19.30;99.90;;;;;;12763338;23;20180;-77
2022/05/08 10:21:05;;;;;;;1.90;1.80;;;18.60;99.90;;;;;;12803193;23;20183;-77
2022/05/08 10:26:23;;;;;;;5.60;2.30;;;17.70;99.90;;;;;;12736430;23;20265;-77
2022/05/08 10:31:47;;;;;;;3.57;2.27;;;18.40;99.90;;;;;;12790257;23;20167;-77
2022/05/08 10:37:12;;;;;;;4.30;2.87;;;17.70;99.90;;;;;;12792386;23;20172;-76
2022/05/08 10:42:29;;;;;;;5.90;3.40;;;17.20;99.90;;;;;;12801446;23;20316;-76
2022/05/08 10:47:34;;;;;;;1.90;1.70;;;16.50;99.90;;;;;;12764136;23;20624;-76
2022/05/08 10:52:42;;;;;;;21.57;2.87;;;17.70;99.90;;;;;;12792531;23;20218;-77
2022/05/08 10:57:46;;;;;;;2.13;1.93;;;18.40;99.90;;;;;;12809930;23;20168;-77
2022/05/08 11:02:54;;;;;;;3.47;3.17;;;18.70;99.90;;;;;;12789077;23;20520;-77
2022/05/08 11:07:58;;;;;;;3.87;2.43;;;18.60;99.90;;;;;;12763890;23;20517;-77
2022/05/08 11:13:10;;;;;;;3.30;2.47;;;18.80;99.90;;;;;;12810944;23;20593;-76
2022/05/08 11:18:27;;;;;;;5.93;2.63;;;18.90;99.90;;;;;;12784971;23;20592;-78
2022/05/08 11:23:41;;;;;;;5.80;4.23;;;19.20;99.90;;;;;;12808661;23;20179;-79
2022/05/08 11:28:49;;;;;;;4.43;3.53;;;18.90;99.60;;;;;;12809159;23;20551;-78
2022/05/08 12:26:10;;;;;;;4.00;2.83;;;18.60;98.60;;;;;;12537860;23;20183;-96
2022/05/08 12:37:11;;;;;;;5.93;3.00;;;19.00;98.50;;;;;;12773737;23;20262;-96
2022/05/08 14:02:49;;;;;;;2.07;1.60;;;19.60;96.00;;;;;;12836599;22;20234;-95
2022/05/08 15:07:33;;;;;;;5.93;1.63;;;19.00;87.30;;;;;;12746778;23;20744;-93
2022/05/08 15:13:06;;;;;;;2.77;2.57;;;19.20;88.60;;;;;;12578079;23;20590;-93
2022/05/08 15:57:27;;;;;;;4.93;1.77;;;18.40;86.80;;;;;;12724731;23;20271;-95
2022/05/08 16:42:47;;;;;;;6.77;2.10;;;18.30;90.40;;;;;;12822338;22;20210;-94
2022/05/08 16:48:09;;;;;;;3.03;2.00;;;18.40;79.20;;;;;;12740139;23;20208;-94
2022/05/08 16:53:13;;;;;;;2.90;2.30;;;18.60;90.50;;;;;;12688153;23;20235;-95
2022/05/08 16:58:16;;;;;;;4.80;2.40;;;18.50;88.60;;;;;;12686216;23;20188;-96
2022/05/08 17:03:19;;;;;;;6.05;2.83;;;18.40;77.00;;;;;;12687859;23;20180;-95
2022/05/08 17:08:23;;;;;;;7.57;3.03;;;18.20;77.60;;;;;;12691415;23;20200;-96
2022/05/08 17:13:25;;;;;;;7.27;3.00;;;18.00;76.10;;;;;;12696004;23;20180;-96
2022/05/08 17:18:35;;;;;;;4.47;2.27;;;18.10;78.40;;;;;;12739402;23;20188;-96
2022/05/08 17:30:20;;;;;;;8.10;2.80;;;17.70;78.20;;;;;;12860044;23;20218;-95
2022/05/08 17:36:17;;;;;;;3.47;2.43;;;17.50;72.40;;;;;;12829140;23;20220;-95
2022/05/08 17:52:43;;;;;;;6.60;2.93;;;16.60;73.70;;;;;;12774233;23;20259;-95
2022/05/08 17:58:20;;;;;;;5.43;2.63;;;16.40;74.70;;;;;;12783368;23;20180;-95
2022/05/08 18:48:28;;;;;;;2.77;2.20;;;13.70;91.20;;;;;;12588295;23;20308;-93
2022/05/08 18:53:31;;;;;;;6.57;2.90;;;13.70;99.90;;;;;;12701242;23;20640;-82
2022/05/08 18:58:34;;;;;;;2.70;1.93;;;13.60;90.00;;;;;;12731426;23;20172;-81
2022/05/08 19:03:39;;;;;;;10.83;2.57;;;13.70;99.90;;;;;;12731583;23;20168;-82
2022/05/08 19:08:41;;;;;;;6.17;2.17;;;14.70;90.30;;;;;;12730088;23;20192;-82
2022/05/08 19:13:44;;;;;;;10.00;2.50;;;13.00;91.10;;;;;;12727383;23;20176;-83
2022/05/08 19:18:48;;;;;;;5.57;2.00;;;12.50;92.30;;;;;;12728995;23;20491;-84
2022/05/08 19:23:55;;;;;;;2.87;2.47;;;;;;;;;;12726219;23;20187;-85
2022/05/08 19:28:57;;;;;;;2.73;1.93;;;14.30;99.90;;;;;;12749588;23;20240;-85
2022/05/08 19:39:20;;;;;;;8.93;2.13;;;16.10;99.90;;;;;;12725189;23;20215;-85
2022/05/08 19:44:24;;;;;;;6.47;2.33;;;16.60;99.90;;;;;;12723717;23;20270;-85
2022/05/08 19:49:26;;;;;;;11.00;2.23;;;16.90;99.90;;;;;;12724816;23;20200;-85
2022/05/08 19:54:29;;;;;;;3.00;1.73;;;17.20;99.30;;;;;;12724469;23;20239;-85
2022/05/08 19:59:32;;;;;;;6.47;2.78;;;17.50;99.90;;;;;;12727858;23;20219;-85
2022/05/08 20:04:34;;;;;;;8.60;2.50;;;16.80;88.30;;;;;;12727871;23;20192;-85
2022/05/08 20:09:40;;;;;;;2.45;1.65;;;17.50;95.70;;;;;;12724324;23;20242;-85
2022/05/08 20:14:43;;;;;;;3.25;1.60;;;17.50;99.90;;;;;;12725476;23;20169;-85
2022/05/08 20:19:45;;;;;;;4.70;1.70;;;17.80;99.90;;;;;;12724029;23;20172;-84
2022/05/08 20:24:50;;;;;;;2.65;1.80;;;17.90;99.40;;;;;;12723914;23;20250;-85
2022/05/08 20:29:52;;;;;;;4.57;2.28;;;17.60;97.70;;;;;;12722421;23;20310;-84
2022/05/08 20:34:55;;;;;;;5.70;2.22;;;17.20;99.90;;;;;;12747312;23;20176;-85
2022/05/08 20:39:58;;;;;;;3.13;1.40;;;17.70;92.70;;;;;;12726347;23;20229;-85
2022/05/08 20:45:03;;;;;;;1.52;1.42;;;17.80;98.20;;;;;;12725573;23;20204;-85
2022/05/08 20:50:06;;;;;;;2.45;1.60;;;18.20;97.60;;;;;;12729302;23;20258;-85
2022/05/08 20:55:09;;;;;;;7.85;2.10;;;18.10;97.60;;;;;;12729057;23;20215;-84
2022/05/08 21:00:12;;;;;;;2.88;1.80;;;17.70;96.90;;;;;;12734853;23;20172;-83
2022/05/08 21:10:37;;;;;;;4.00;2.55;;;16.30;92.90;;;;;;12750880;23;20250;-83
2022/05/08 21:15:40;;;;;;;1.90;1.43;;;16.10;97.00;;;;;;12730812;23;20243;-83
2022/05/08 21:20:43;;;;;;;1.95;1.75;;;16.60;99.90;;;;;;12733257;23;20176;-84
2022/05/08 21:25:47;;;;;;;1.90;1.50;;;16.30;99.90;;;;;;12756356;23;20188;-84
2022/05/08 21:30:49;;;;;;;4.13;2.25;;;16.60;99.90;;;;;;12732557;23;20546;-84
2022/05/08 21:35:52;;;;;;;6.05;2.40;;;16.50;99.10;;;;;;12745594;23;20551;-84
2022/05/08 21:40:54;;;;;;;6.93;3.05;;;16.20;98.10;;;;;;12733278;23;20168;-83
2022/05/08 21:45:57;;;;;;;6.20;2.30;;;15.90;94.60;;;;;;12755632;23;20189;-84
2022/05/08 21:51:01;;;;;;;8.70;3.43;;;15.80;95.70;;;;;;12730151;23;20227;-84
2022/05/08 21:56:04;;;;;;;1.97;1.47;;;15.40;94.70;;;;;;12729781;23;20184;-84
2022/05/08 22:01:06;;;;;;;8.50;3.00;;;16.40;99.90;;;;;;12731670;23;20196;-84
2022/05/08 22:06:09;;;;;;;3.30;2.10;;;17.20;98.60;;;;;;12730844;23;20569;-84
2022/05/08 22:11:12;;;;;;;3.55;2.00;;;17.40;97.90;;;;;;12732588;23;20168;-84
2022/05/08 22:16:14;;;;;;;5.43;2.65;;;17.40;98.80;;;;;;12728916;23;20239;-84
2022/05/08 22:21:17;;;;;;;4.00;2.53;;;16.90;93.50;;;;;;12729436;23;20640;-84
2022/05/08 22:26:19;;;;;;;3.53;2.20;;;16.30;96.10;;;;;;12731744;23;20196;-84
2022/05/08 22:31:22;;;;;;;4.90;3.13;;;16.00;99.30;;;;;;12733494;23;20488;-84
2022/05/08 22:36:25;;;;;;;4.00;2.87;;;15.80;99.90;;;;;;12727850;23;20639;-85
2022/05/08 22:41:27;;;;;;;1.60;1.50;;;14.80;99.90;;;;;;12731745;23;20223;-84
2022/05/08 22:46:30;;;;;;;5.93;5.33;;;14.80;99.90;;;;;;12731598;23;20232;-84
2022/05/08 22:51:33;;;;;;;4.20;3.10;;;15.20;99.60;;;;;;12731172;23;20224;-85
2022/05/08 22:56:36;;;;;;;6.40;5.17;;;15.00;99.90;;;;;;12729984;23;20172;-85
2022/05/08 23:01:38;;;;;;;11.23;5.80;;;14.30;99.90;;;;;;12731482;23;20223;-85
2022/05/08 23:06:41;;;;;;;10.70;8.23;;;14.30;99.90;;;;;;12728625;23;20405;-85
2022/05/08 23:11:46;;;;;;;2.23;2.03;;;14.40;99.90;;;;;;12731169;23;20690;-85
2022/05/08 23:16:48;;;;;;;7.30;6.57;;;15.70;99.90;;;;;;12753770;23;20223;-85
2022/05/08 23:21:51;;;;;;;11.00;9.43;;;15.50;99.90;;;;;;12729629;23;20235;-85
2022/05/08 23:26:55;;;;;;;3.43;2.77;;;14.60;99.90;;;;;;12731606;23;20192;-85
2022/05/08 23:31:57;;;;;;;10.57;7.10;;;15.30;99.90;;;;;;12731213;23;20168;-85
2022/05/08 23:37:01;;;;;;;6.37;4.47;;;15.50;99.90;;;;;;12739053;23;20234;-85
2022/05/08 23:42:04;;;;;;;14.43;8.90;;;15.70;99.90;;;;;;12730315;23;20515;-85
2022/05/08 23:47:07;;;;;;;8.50;6.35;;;15.90;99.90;;;;;;12728403;23;20254;-85
2022/05/08 23:52:10;;;;;;;8.75;6.03;;;16.00;99.90;;;;;;12730362;23;20247;-85
2022/05/08 23:57:13;;;;;;;6.40;5.10;;;16.90;99.90;;;;;;12729787;23;20219;-85
